createdAt,value
2022-10-19T00:00:13.911Z,100.00
2022-10-19T00:01:13.156Z,100.00
2022-10-19T00:02:13.626Z,100.00
2022-10-19T00:03:14.032Z,100.00
2022-10-19T00:04:13.218Z,99.80
2022-10-19T00:05:13.762Z,99.40
2022-10-19T00:06:13.129Z,99.40
2022-10-19T00:07:13.190Z,99.40
2022-10-19T00:08:13.615Z,99.80
2022-10-19T00:09:14.061Z,99.90
2022-10-19T00:10:13.483Z,99.90
2022-10-19T00:11:13.644Z,99.90
2022-10-19T00:12:13.676Z,99.70
2022-10-19T00:13:13.626Z,99.40
2022-10-19T00:14:13.838Z,98.90
2022-10-19T00:15:13.796Z,98.60
2022-10-19T00:16:13.825Z,98.40
2022-10-19T00:17:13.922Z,98.40
2022-10-19T00:18:12.819Z,98.40
2022-10-19T00:19:13.785Z,98.90
2022-10-19T00:20:13.855Z,99.50
2022-10-19T00:21:13.859Z,99.30
2022-10-19T00:22:14.166Z,99.10
2022-10-19T00:23:13.571Z,98.90
2022-10-19T00:24:13.925Z,99.20
2022-10-19T00:25:12.889Z,99.20
2022-10-19T00:26:12.825Z,99.60
2022-10-19T00:27:14.020Z,99.80
2022-10-19T00:28:13.208Z,100.00
2022-10-19T00:29:13.235Z,100.00
2022-10-19T00:30:13.538Z,100.00
2022-10-19T00:31:14.831Z,99.90
2022-10-19T00:32:13.857Z,99.90
2022-10-19T00:33:13.861Z,99.10
2022-10-19T00:34:13.804Z,99.50
2022-10-19T00:35:13.956Z,100.00
2022-10-19T00:36:12.920Z,100.00
2022-10-19T00:37:13.061Z,100.00
2022-10-19T00:38:13.276Z,100.00
2022-10-19T00:39:13.130Z,100.00
2022-10-19T00:40:13.077Z,100.00
2022-10-19T00:41:13.004Z,100.00
2022-10-19T00:42:12.840Z,100.00
2022-10-19T00:43:13.719Z,100.00
2022-10-19T00:44:14.183Z,100.00
2022-10-19T00:45:13.436Z,100.00
2022-10-19T00:46:13.750Z,100.00
2022-10-19T00:47:13.980Z,100.00
2022-10-19T00:48:12.894Z,100.00
2022-10-19T00:49:17.818Z,100.00
2022-10-19T00:50:13.810Z,100.00
2022-10-19T00:51:13.819Z,100.00
2022-10-19T00:52:13.942Z,100.00
2022-10-19T00:53:13.157Z,100.00
2022-10-19T00:54:12.997Z,100.00
2022-10-19T00:55:12.939Z,100.00
2022-10-19T00:56:12.839Z,100.00
2022-10-19T00:57:14.027Z,100.00
2022-10-19T00:58:13.390Z,100.00
2022-10-19T00:59:13.805Z,100.00
2022-10-19T01:00:14.907Z,100.00
2022-10-19T01:01:18.089Z,100.00
2022-10-19T01:02:13.290Z,100.00
2022-10-19T01:03:13.437Z,100.00
2022-10-19T01:04:13.384Z,100.00
2022-10-19T01:05:13.645Z,100.00
2022-10-19T01:06:13.753Z,100.00
2022-10-19T01:07:13.690Z,100.00
2022-10-19T01:08:14.036Z,99.90
2022-10-19T01:09:13.019Z,99.20
2022-10-19T01:10:12.935Z,98.30
2022-10-19T01:11:12.852Z,98.10
2022-10-19T01:12:13.842Z,98.10
2022-10-19T01:13:13.977Z,98.10
2022-10-19T01:14:12.849Z,97.60
2022-10-19T01:15:13.762Z,97.00
2022-10-19T01:16:14.051Z,96.80
2022-10-19T01:17:13.074Z,96.80
2022-10-19T01:18:13.312Z,97.00
2022-10-19T01:19:13.316Z,97.60
2022-10-19T01:20:13.455Z,98.40
2022-10-19T01:21:13.558Z,98.50
2022-10-19T01:22:13.553Z,98.20
2022-10-19T01:23:13.619Z,98.00
2022-10-19T01:24:13.447Z,97.90
2022-10-19T01:25:13.341Z,97.60
2022-10-19T01:26:14.255Z,97.20
2022-10-19T01:27:13.287Z,97.30
2022-10-19T01:28:14.050Z,97.60
2022-10-19T01:29:13.336Z,98.30
2022-10-19T01:30:13.538Z,99.00
2022-10-19T01:31:13.459Z,99.60
2022-10-19T01:32:13.387Z,99.40
2022-10-19T01:33:13.686Z,99.40
2022-10-19T01:34:14.300Z,99.20
2022-10-19T01:35:13.451Z,98.80
2022-10-19T01:36:13.923Z,98.60
2022-10-19T01:37:13.114Z,97.90
2022-10-19T01:38:13.092Z,97.40
2022-10-19T01:39:13.025Z,97.30
2022-10-19T01:40:12.971Z,97.50
2022-10-19T01:41:12.999Z,97.30
2022-10-19T01:42:12.903Z,97.70
2022-10-19T01:43:13.019Z,97.90
2022-10-19T01:44:13.025Z,98.30
2022-10-19T01:45:13.091Z,98.40
2022-10-19T01:46:13.144Z,98.10
2022-10-19T01:47:13.037Z,97.80
2022-10-19T01:48:12.959Z,97.20
2022-10-19T01:49:12.951Z,97.40
2022-10-19T01:50:12.872Z,98.20
2022-10-19T01:51:13.819Z,98.90
2022-10-19T01:52:13.698Z,100.00
2022-10-19T01:53:13.788Z,100.00
2022-10-19T01:54:13.808Z,100.00
2022-10-19T01:55:13.746Z,100.00
2022-10-19T01:56:13.728Z,100.00
2022-10-19T01:57:13.929Z,100.00
2022-10-19T01:58:13.179Z,100.00
2022-10-19T01:59:13.168Z,99.90
2022-10-19T02:00:13.448Z,99.50
2022-10-19T02:01:13.352Z,99.30
2022-10-19T02:02:13.281Z,99.20
2022-10-19T02:03:13.167Z,99.10
2022-10-19T02:04:13.215Z,99.40
2022-10-19T02:05:13.303Z,99.80
2022-10-19T02:06:13.571Z,99.80
2022-10-19T02:07:14.047Z,99.20
2022-10-19T02:08:13.654Z,99.10
2022-10-19T02:09:13.868Z,98.60
2022-10-19T02:11:13.323Z,99.90
2022-10-19T02:12:13.330Z,100.00
2022-10-19T02:13:13.782Z,100.00
2022-10-19T02:14:13.068Z,100.00
2022-10-19T02:15:12.970Z,100.00
2022-10-19T02:16:12.810Z,100.00
2022-10-19T02:17:13.706Z,100.00
2022-10-19T02:18:13.602Z,100.00
2022-10-19T02:19:13.797Z,100.00
2022-10-19T02:20:14.065Z,100.00
2022-10-19T02:21:13.221Z,100.00
2022-10-19T02:22:13.476Z,100.00
2022-10-19T02:23:13.682Z,100.00
2022-10-19T02:24:13.795Z,100.00
2022-10-19T02:25:13.734Z,100.00
2022-10-19T02:26:13.728Z,100.00
2022-10-19T02:27:13.838Z,100.00
2022-10-19T02:28:13.715Z,100.00
2022-10-19T02:29:13.769Z,100.00
2022-10-19T02:30:13.901Z,100.00
2022-10-19T02:31:12.813Z,100.00
2022-10-19T02:32:13.708Z,100.00
2022-10-19T02:33:13.675Z,99.90
2022-10-19T02:34:13.702Z,99.50
2022-10-19T02:35:13.553Z,99.60
2022-10-19T02:36:13.454Z,99.60
2022-10-19T02:37:13.453Z,99.40
2022-10-19T02:38:13.407Z,98.80
2022-10-19T02:39:13.514Z,98.50
2022-10-19T02:40:13.460Z,98.30
2022-10-19T02:41:13.695Z,99.40
2022-10-19T02:42:14.008Z,99.80
2022-10-19T02:43:13.221Z,99.60
2022-10-19T02:44:13.246Z,99.30
2022-10-19T02:45:13.547Z,99.40
2022-10-19T02:46:13.483Z,99.90
2022-10-19T02:47:13.407Z,99.80
2022-10-19T02:48:13.284Z,99.00
2022-10-19T02:49:13.092Z,98.80
2022-10-19T02:50:13.073Z,98.50
2022-10-19T02:51:12.995Z,98.50
2022-10-19T02:52:12.997Z,98.40
2022-10-19T02:53:12.863Z,98.40
2022-10-19T02:54:13.884Z,98.50
2022-10-19T02:55:12.899Z,98.60
2022-10-19T02:56:12.970Z,98.50
2022-10-19T02:57:13.317Z,98.00
2022-10-19T02:58:13.635Z,97.80
2022-10-19T02:59:13.753Z,97.70
2022-10-19T03:00:13.665Z,98.00
2022-10-19T03:01:18.819Z,98.50
2022-10-19T03:02:13.974Z,99.00
2022-10-19T03:03:13.083Z,99.10
2022-10-19T03:04:12.968Z,98.70
2022-10-19T03:05:13.080Z,98.80
2022-10-19T03:06:13.265Z,99.20
2022-10-19T03:07:13.195Z,99.40
2022-10-19T03:08:13.524Z,99.30
2022-10-19T03:09:13.591Z,98.90
2022-10-19T03:10:13.695Z,98.20
2022-10-19T03:11:14.070Z,98.50
2022-10-19T03:12:13.035Z,98.60
2022-10-19T03:13:13.347Z,98.50
2022-10-19T03:14:13.557Z,98.30
2022-10-19T03:15:13.449Z,98.40
2022-10-19T03:16:13.750Z,98.50
2022-10-19T03:17:13.798Z,98.40
2022-10-19T03:18:13.894Z,98.50
2022-10-19T03:19:12.979Z,98.60
2022-10-19T03:20:12.988Z,99.00
2022-10-19T03:21:12.926Z,99.40
2022-10-19T03:22:12.884Z,99.50
2022-10-19T03:23:14.323Z,99.60
2022-10-19T03:24:13.131Z,99.40
2022-10-19T03:25:13.214Z,99.00
2022-10-19T03:26:13.242Z,98.80
2022-10-19T03:27:13.229Z,98.70
2022-10-19T03:28:13.182Z,98.90
2022-10-19T03:29:13.328Z,99.20
2022-10-19T03:30:13.444Z,99.40
2022-10-19T03:31:13.409Z,99.30
2022-10-19T03:32:13.314Z,99.40
2022-10-19T03:33:13.634Z,99.40
2022-10-19T03:34:14.002Z,99.10
2022-10-19T03:35:12.836Z,98.70
2022-10-19T03:36:13.833Z,98.30
2022-10-19T03:37:13.935Z,98.20
2022-10-19T03:38:13.229Z,98.50
2022-10-19T03:39:13.483Z,98.80
2022-10-19T03:40:13.558Z,99.20
2022-10-19T03:41:13.533Z,99.20
2022-10-19T03:42:13.425Z,99.00
2022-10-19T03:43:14.079Z,98.90
2022-10-19T03:44:12.996Z,99.00
2022-10-19T03:45:13.057Z,98.90
2022-10-19T03:46:13.314Z,99.00
2022-10-19T03:47:13.692Z,98.60
2022-10-19T03:48:13.611Z,98.50
2022-10-19T03:49:13.726Z,98.90
2022-10-19T03:50:13.879Z,99.00
2022-10-19T03:51:13.805Z,99.50
2022-10-19T03:52:14.422Z,99.50
2022-10-19T03:53:13.377Z,99.40
2022-10-19T03:54:13.397Z,99.50
2022-10-19T03:55:13.614Z,99.40
2022-10-19T03:56:13.588Z,99.20
2022-10-19T03:57:13.897Z,99.30
2022-10-19T03:58:12.821Z,99.20
2022-10-19T03:59:14.017Z,98.80
2022-10-19T04:00:13.037Z,98.40
2022-10-19T04:01:13.049Z,98.40
2022-10-19T04:02:13.397Z,98.50
2022-10-19T04:03:13.304Z,98.50
2022-10-19T04:04:13.641Z,98.10
2022-10-19T04:05:13.792Z,98.00
2022-10-19T04:06:15.872Z,98.70
2022-10-19T04:07:13.863Z,99.20
2022-10-19T04:08:13.922Z,99.60
2022-10-19T04:09:13.238Z,99.70
2022-10-19T04:10:13.298Z,99.90
2022-10-19T04:11:13.153Z,100.00
2022-10-19T04:12:13.593Z,100.00
2022-10-19T04:13:13.847Z,100.00
2022-10-19T04:14:19.141Z,100.00
2022-10-19T04:15:13.464Z,100.00
2022-10-19T04:16:13.949Z,100.00
2022-10-19T04:17:13.059Z,100.00
2022-10-19T04:18:13.130Z,100.00
2022-10-19T04:19:12.997Z,100.00
2022-10-19T04:20:12.807Z,100.00
2022-10-19T04:21:13.810Z,100.00
2022-10-19T04:22:13.754Z,100.00
2022-10-19T04:23:14.073Z,100.00
2022-10-19T04:24:13.392Z,100.00
2022-10-19T04:25:13.418Z,100.00
2022-10-19T04:26:13.768Z,100.00
2022-10-19T04:27:14.007Z,100.00
2022-10-19T04:28:13.077Z,100.00
2022-10-19T04:29:13.643Z,100.00
2022-10-19T04:30:13.901Z,100.00
2022-10-19T04:31:13.030Z,100.00
2022-10-19T04:32:13.197Z,100.00
2022-10-19T04:33:13.394Z,100.00
2022-10-19T04:34:13.525Z,100.00
2022-10-19T04:35:13.749Z,100.00
2022-10-19T04:36:13.959Z,100.00
2022-10-19T04:37:12.891Z,100.00
2022-10-19T04:38:12.824Z,100.00
2022-10-19T04:39:13.948Z,100.00
2022-10-19T04:40:15.185Z,100.00
2022-10-19T04:41:13.639Z,100.00
2022-10-19T04:42:13.867Z,100.00
2022-10-19T04:43:13.800Z,100.00
2022-10-19T04:44:14.385Z,100.00
2022-10-19T04:45:13.554Z,100.00
2022-10-19T04:46:13.799Z,100.00
2022-10-19T04:47:24.288Z,100.00
2022-10-19T04:48:18.439Z,100.00
2022-10-19T04:49:16.510Z,100.00
2022-10-19T04:50:13.567Z,100.00
2022-10-19T04:51:13.399Z,100.00
2022-10-19T04:52:13.345Z,100.00
2022-10-19T04:53:13.685Z,100.00
2022-10-19T04:54:14.065Z,100.00
2022-10-19T04:55:13.245Z,100.00
2022-10-19T04:56:13.431Z,100.00
2022-10-19T04:57:13.480Z,100.00
2022-10-19T04:58:13.486Z,100.00
2022-10-19T04:59:13.394Z,100.00
2022-10-19T05:00:13.502Z,100.00
2022-10-19T05:01:13.704Z,100.00
2022-10-19T05:02:13.952Z,100.00
2022-10-19T05:03:12.844Z,100.00
2022-10-19T05:04:14.025Z,100.00
2022-10-19T05:05:13.085Z,99.90
2022-10-19T05:06:13.033Z,99.90
2022-10-19T05:07:12.942Z,99.80
2022-10-19T05:08:13.109Z,99.70
2022-10-19T05:09:13.183Z,99.40
2022-10-19T05:10:13.035Z,99.30
2022-10-19T05:11:13.091Z,99.80
2022-10-19T05:12:26.155Z,99.90
2022-10-19T05:13:13.019Z,99.80
2022-10-19T05:14:13.139Z,99.50
2022-10-19T05:15:13.296Z,99.50
2022-10-19T05:16:13.661Z,99.50
2022-10-19T05:17:14.026Z,99.40
2022-10-19T05:18:18.189Z,99.10
2022-10-19T05:19:13.074Z,99.30
2022-10-19T05:20:13.017Z,99.60
2022-10-19T05:21:12.889Z,99.80
2022-10-19T05:22:12.840Z,99.80
2022-10-19T05:23:13.827Z,99.90
2022-10-19T05:24:14.182Z,100.00
2022-10-19T05:25:13.484Z,100.00
2022-10-19T05:26:13.431Z,100.00
2022-10-19T05:27:13.360Z,100.00
2022-10-19T05:28:13.699Z,99.90
2022-10-19T05:29:13.620Z,99.70
2022-10-19T05:30:13.950Z,100.00
2022-10-19T05:31:13.678Z,100.00
2022-10-19T05:32:13.907Z,100.00
2022-10-19T05:33:13.659Z,100.00
2022-10-19T05:34:17.281Z,100.00
2022-10-19T05:35:13.216Z,100.00
2022-10-19T05:36:13.415Z,100.00
2022-10-19T05:37:13.471Z,100.00
2022-10-19T05:38:13.567Z,99.70
2022-10-19T05:39:13.463Z,99.40
2022-10-19T05:40:13.375Z,99.10
2022-10-19T05:41:13.193Z,99.20
2022-10-19T05:42:13.332Z,99.90
2022-10-19T05:43:13.284Z,100.00
2022-10-19T05:44:13.158Z,99.80
2022-10-19T05:45:12.947Z,99.60
2022-10-19T05:46:31.936Z,100.00
2022-10-19T05:47:12.961Z,100.00
2022-10-19T05:48:12.918Z,100.00
2022-10-19T05:49:12.922Z,100.00
2022-10-19T05:50:13.063Z,100.00
2022-10-19T05:51:13.006Z,100.00
2022-10-19T05:52:12.791Z,100.00
2022-10-19T05:53:14.251Z,100.00
2022-10-19T05:54:13.085Z,100.00
2022-10-19T05:55:12.938Z,100.00
2022-10-19T05:56:13.004Z,100.00
2022-10-19T05:57:12.924Z,100.00
2022-10-19T05:58:12.966Z,100.00
2022-10-19T05:59:12.995Z,100.00
2022-10-19T06:00:13.143Z,100.00
2022-10-19T06:01:12.972Z,100.00
2022-10-19T06:02:13.006Z,100.00
2022-10-19T06:03:13.367Z,100.00
2022-10-19T06:04:13.563Z,100.00
2022-10-19T06:05:13.486Z,100.00
2022-10-19T06:06:13.608Z,100.00
2022-10-19T06:07:14.705Z,100.00
2022-10-19T06:08:13.969Z,100.00
2022-10-19T06:09:13.411Z,100.00
2022-10-19T06:10:13.232Z,100.00
2022-10-19T06:11:18.182Z,100.00
2022-10-19T06:12:15.753Z,100.00
2022-10-19T06:13:13.353Z,100.00
2022-10-19T06:14:13.479Z,100.00
2022-10-19T06:15:13.690Z,100.00
2022-10-19T06:16:18.918Z,100.00
2022-10-19T06:17:13.064Z,100.00
2022-10-19T06:18:18.322Z,100.00
2022-10-19T06:19:29.180Z,100.00
2022-10-19T06:20:13.264Z,100.00
2022-10-19T06:21:13.327Z,100.00
2022-10-19T06:22:18.699Z,100.00
2022-10-19T06:23:14.309Z,100.00
2022-10-19T06:24:13.129Z,100.00
2022-10-19T06:25:28.012Z,100.00
2022-10-19T06:26:13.065Z,100.00
2022-10-19T06:27:13.137Z,100.00
2022-10-19T06:28:13.217Z,100.00
2022-10-19T06:29:13.528Z,100.00
2022-10-19T06:30:13.649Z,100.00
2022-10-19T06:31:13.589Z,100.00
2022-10-19T06:32:13.723Z,100.00
2022-10-19T06:33:13.854Z,100.00
2022-10-19T06:34:14.083Z,100.00
2022-10-19T06:35:13.276Z,100.00
2022-10-19T06:36:13.172Z,100.00
2022-10-19T06:37:13.153Z,100.00
2022-10-19T06:38:13.223Z,100.00
2022-10-19T06:39:13.348Z,100.00
2022-10-19T06:40:13.382Z,100.00
2022-10-19T06:41:18.297Z,100.00
2022-10-19T06:42:13.797Z,100.00
2022-10-19T06:43:21.238Z,100.00
2022-10-19T06:44:13.871Z,100.00
2022-10-19T06:45:17.512Z,100.00
2022-10-19T06:46:13.638Z,100.00
2022-10-19T06:47:13.895Z,100.00
2022-10-19T06:48:13.722Z,100.00
2022-10-19T06:49:24.773Z,100.00
2022-10-19T06:50:14.223Z,100.00
2022-10-19T06:51:13.251Z,100.00
2022-10-19T06:52:20.006Z,100.00
2022-10-19T06:53:13.071Z,100.00
2022-10-19T06:54:21.182Z,100.00
2022-10-19T06:55:18.196Z,100.00
2022-10-19T06:56:13.169Z,100.00
2022-10-19T06:57:23.148Z,100.00
2022-10-19T06:58:13.111Z,100.00
2022-10-19T06:59:18.202Z,100.00
2022-10-19T07:00:32.097Z,100.00
2022-10-19T07:01:13.629Z,100.00
2022-10-19T07:02:14.254Z,100.00
2022-10-19T07:03:13.413Z,100.00
2022-10-19T07:04:13.548Z,100.00
2022-10-19T07:05:28.265Z,100.00
2022-10-19T07:06:13.414Z,100.00
2022-10-19T07:07:13.844Z,100.00
2022-10-19T07:08:14.077Z,100.00
2022-10-19T07:09:13.180Z,100.00
2022-10-19T07:10:13.269Z,100.00
2022-10-19T07:11:13.226Z,100.00
2022-10-19T07:12:13.182Z,100.00
2022-10-19T07:13:13.511Z,100.00
2022-10-19T07:14:15.512Z,100.00
2022-10-19T07:15:14.356Z,100.00
2022-10-19T07:16:16.177Z,100.00
2022-10-19T07:17:13.301Z,99.80
2022-10-19T07:18:13.374Z,99.60
2022-10-19T07:19:13.293Z,99.60
2022-10-19T07:20:23.287Z,100.00
2022-10-19T07:21:13.351Z,100.00
2022-10-19T07:22:28.131Z,100.00
2022-10-19T07:23:13.469Z,100.00
2022-10-19T07:24:20.971Z,100.00
2022-10-19T07:25:14.447Z,100.00
2022-10-19T07:26:21.676Z,100.00
2022-10-19T07:27:13.821Z,100.00
2022-10-19T07:28:14.050Z,100.00
2022-10-19T07:29:13.305Z,100.00
2022-10-19T07:30:13.372Z,100.00
2022-10-19T07:31:14.760Z,100.00
2022-10-19T07:32:13.894Z,100.00
2022-10-19T07:33:13.432Z,100.00
2022-10-19T07:34:13.718Z,100.00
2022-10-19T07:35:28.335Z,100.00
2022-10-19T07:36:13.389Z,100.00
2022-10-19T07:37:14.005Z,100.00
2022-10-19T07:38:12.876Z,100.00
2022-10-19T07:40:43.486Z,100.00
2022-10-19T07:41:14.043Z,100.00
2022-10-19T07:43:13.808Z,100.00
2022-10-19T07:44:29.136Z,100.00
2022-10-19T07:45:19.066Z,100.00
2022-10-19T07:46:24.363Z,100.00
2022-10-19T07:47:19.462Z,100.00
2022-10-19T07:48:26.560Z,100.00
2022-10-19T07:49:14.036Z,100.00
2022-10-19T07:50:13.004Z,100.00
2022-10-19T07:51:37.601Z,100.00
2022-10-19T07:52:13.900Z,100.00
2022-10-19T07:53:12.777Z,100.00
2022-10-19T07:54:13.904Z,100.00
2022-10-19T07:55:13.313Z,100.00
2022-10-19T07:57:27.926Z,100.00
2022-10-19T07:58:47.051Z,100.00
2022-10-19T07:59:14.828Z,100.00
2022-10-19T08:00:14.232Z,100.00
2022-10-19T08:01:13.349Z,99.80
2022-10-19T08:02:18.349Z,99.80
2022-10-19T08:04:31.231Z,100.00
2022-10-19T08:04:48.970Z,100.00
2022-10-19T08:05:13.916Z,99.90
2022-10-19T08:06:13.200Z,99.90
2022-10-19T08:07:18.334Z,99.70
2022-10-19T08:08:14.992Z,99.70
2022-10-19T08:09:27.743Z,99.60
2022-10-19T08:10:13.794Z,99.50
2022-10-19T08:11:14.315Z,99.40
2022-10-19T08:12:15.385Z,99.30
2022-10-19T08:13:14.578Z,99.40
2022-10-19T08:14:13.919Z,99.50
2022-10-19T08:15:13.086Z,99.60
2022-10-19T08:16:13.223Z,99.80
2022-10-19T08:17:13.236Z,99.90
2022-10-19T08:18:13.401Z,99.60
2022-10-19T08:19:13.448Z,99.50
2022-10-19T08:20:13.489Z,99.80
2022-10-19T08:21:13.692Z,99.50
2022-10-19T08:22:13.733Z,99.10
2022-10-19T08:23:13.780Z,99.30
2022-10-19T08:24:14.088Z,99.20
2022-10-19T08:25:13.141Z,98.90
2022-10-19T08:26:13.075Z,98.60
2022-10-19T08:27:23.055Z,98.00
2022-10-19T08:28:13.642Z,98.30
2022-10-19T08:29:15.074Z,98.30
2022-10-19T08:30:13.418Z,98.30
2022-10-19T08:31:13.439Z,97.80
2022-10-19T08:32:13.325Z,98.10
2022-10-19T08:33:13.620Z,97.70
2022-10-19T08:34:13.837Z,97.30
2022-10-19T08:35:13.795Z,97.10
2022-10-19T08:36:13.961Z,97.00
2022-10-19T08:37:26.067Z,96.40
2022-10-19T08:38:13.126Z,96.40
2022-10-19T08:39:13.045Z,96.50
2022-10-19T08:40:13.546Z,95.90
2022-10-19T08:41:13.548Z,96.50
2022-10-19T08:42:14.033Z,96.40
2022-10-19T08:43:13.030Z,96.10
2022-10-19T08:44:13.430Z,95.80
2022-10-19T08:45:13.693Z,95.60
2022-10-19T08:46:13.694Z,95.70
2022-10-19T08:47:14.122Z,94.90
2022-10-19T08:48:13.382Z,94.20
2022-10-19T08:49:13.553Z,94.80
2022-10-19T08:50:13.687Z,93.70
2022-10-19T08:51:13.841Z,94.30
2022-10-19T08:52:13.876Z,93.40
2022-10-19T08:53:13.232Z,92.70
2022-10-19T08:54:13.256Z,91.80
2022-10-19T08:55:15.253Z,91.60
2022-10-19T08:56:22.186Z,90.90
2022-10-19T08:57:13.472Z,90.60
2022-10-19T08:58:13.531Z,90.10
2022-10-19T08:59:13.936Z,90.70
2022-10-19T09:00:18.006Z,89.60
2022-10-19T09:01:13.319Z,88.80
2022-10-19T09:02:13.446Z,88.30
2022-10-19T09:03:13.787Z,88.00
2022-10-19T09:04:13.791Z,87.20
2022-10-19T09:05:13.897Z,86.20
2022-10-19T09:06:12.919Z,85.90
2022-10-19T09:07:13.017Z,86.00
2022-10-19T09:08:16.798Z,85.40
2022-10-19T09:09:13.996Z,84.90
2022-10-19T09:10:13.244Z,84.20
2022-10-19T09:11:13.211Z,84.40
2022-10-19T09:12:13.517Z,83.90
2022-10-19T09:13:13.548Z,84.30
2022-10-19T09:14:13.706Z,83.70
2022-10-19T09:15:14.267Z,83.10
2022-10-19T09:16:13.075Z,84.00
2022-10-19T09:17:13.115Z,83.30
2022-10-19T09:18:13.014Z,83.60
2022-10-19T09:19:13.338Z,82.40
2022-10-19T09:20:14.610Z,82.60
2022-10-19T09:21:13.629Z,82.70
2022-10-19T09:22:14.259Z,82.10
2022-10-19T09:23:13.642Z,82.20
2022-10-19T09:24:13.754Z,82.50
2022-10-19T09:25:13.739Z,82.30
2022-10-19T09:26:13.992Z,84.00
2022-10-19T09:27:13.285Z,81.70
2022-10-19T09:28:13.582Z,81.50
2022-10-19T09:29:13.810Z,81.30
2022-10-19T09:30:13.801Z,81.30
2022-10-19T09:31:14.113Z,80.80
2022-10-19T09:32:13.749Z,81.00
2022-10-19T09:33:15.442Z,80.80
2022-10-19T09:34:13.620Z,80.50
2022-10-19T09:35:13.560Z,79.60
2022-10-19T09:36:22.447Z,80.10
2022-10-19T09:37:21.126Z,79.50
2022-10-19T09:38:13.537Z,79.10
2022-10-19T09:39:13.807Z,78.70
2022-10-19T09:40:13.987Z,77.10
2022-10-19T09:41:12.973Z,74.70
2022-10-19T09:42:13.054Z,73.00
2022-10-19T09:43:12.930Z,71.50
2022-10-19T09:44:13.015Z,68.90
2022-10-19T09:45:12.903Z,67.50
2022-10-19T09:46:19.486Z,65.80
2022-10-19T09:47:13.999Z,64.70
2022-10-19T09:48:13.375Z,64.10
2022-10-19T09:49:13.342Z,64.00
2022-10-19T09:50:13.430Z,62.40
2022-10-19T09:51:13.362Z,61.40
2022-10-19T09:52:13.334Z,61.60
2022-10-19T09:53:13.543Z,61.00
2022-10-19T09:54:13.533Z,59.30
2022-10-19T09:55:13.541Z,58.60
2022-10-19T09:56:13.384Z,60.30
2022-10-19T09:57:13.735Z,62.60
2022-10-19T09:58:13.702Z,63.50
2022-10-19T09:59:14.076Z,61.00
2022-10-19T10:00:13.048Z,61.60
2022-10-19T10:01:13.186Z,62.30
2022-10-19T10:02:13.178Z,62.10
2022-10-19T10:03:13.469Z,60.90
2022-10-19T10:04:13.550Z,60.40
2022-10-19T10:05:13.702Z,61.30
2022-10-19T10:06:28.681Z,61.00
2022-10-19T10:07:14.063Z,61.10
2022-10-19T10:09:07.914Z,60.30
2022-10-19T10:09:14.812Z,59.00
2022-10-19T10:10:13.779Z,60.20
2022-10-19T10:11:14.258Z,60.50
2022-10-19T10:12:13.201Z,58.50
2022-10-19T10:13:13.204Z,59.10
2022-10-19T10:14:13.588Z,60.50
2022-10-19T10:15:18.920Z,59.70
2022-10-19T10:16:12.853Z,59.20
2022-10-19T10:17:24.213Z,57.30
2022-10-19T10:18:13.168Z,56.60
2022-10-19T10:19:13.427Z,55.30
2022-10-19T10:20:13.213Z,53.70
2022-10-19T10:21:13.694Z,55.90
2022-10-19T10:22:13.723Z,55.80
2022-10-19T10:23:13.762Z,53.80
2022-10-19T10:24:13.963Z,52.60
2022-10-19T10:25:12.891Z,55.30
2022-10-19T10:26:14.480Z,55.20
2022-10-19T10:27:13.783Z,54.70
2022-10-19T10:28:14.196Z,54.40
2022-10-19T10:29:18.627Z,54.20
2022-10-19T10:30:13.998Z,55.90
2022-10-19T10:31:13.130Z,55.40
2022-10-19T10:32:13.454Z,56.30
2022-10-19T10:33:26.627Z,55.90
2022-10-19T10:34:28.463Z,56.30
2022-10-19T10:35:13.389Z,56.40
2022-10-19T10:36:13.335Z,56.00
2022-10-19T10:37:13.172Z,55.10
2022-10-19T10:38:13.019Z,55.50
2022-10-19T10:39:13.221Z,55.60
2022-10-19T10:40:13.201Z,55.60
2022-10-19T10:41:13.832Z,56.20
2022-10-19T10:42:14.343Z,55.20
2022-10-19T10:43:13.437Z,55.30
2022-10-19T10:44:13.358Z,56.20
2022-10-19T10:45:42.481Z,55.60
2022-10-19T10:46:13.872Z,54.20
2022-10-19T10:47:13.973Z,52.70
2022-10-19T10:48:13.368Z,53.10
2022-10-19T10:49:13.868Z,52.30
2022-10-19T10:50:35.326Z,55.30
2022-10-19T10:51:25.152Z,53.40
2022-10-19T10:52:30.522Z,54.70
2022-10-19T10:53:17.159Z,54.20
2022-10-19T10:54:13.198Z,55.50
2022-10-19T10:55:14.696Z,53.80
2022-10-19T10:56:24.868Z,56.30
2022-10-19T10:57:34.554Z,58.70
2022-10-19T10:58:15.367Z,60.40
2022-10-19T10:59:13.843Z,58.90
2022-10-19T11:00:26.542Z,57.30
2022-10-19T11:01:28.800Z,54.80
2022-10-19T11:02:13.925Z,54.60
2022-10-19T11:03:14.616Z,56.30
2022-10-19T11:04:13.736Z,54.80
2022-10-19T11:05:18.955Z,52.10
2022-10-19T11:06:36.920Z,53.50
2022-10-19T11:07:28.730Z,56.90
2022-10-19T11:08:14.235Z,56.90
2022-10-19T11:09:31.876Z,57.40
2022-10-19T11:10:13.574Z,55.80
2022-10-19T11:11:33.639Z,55.30
2022-10-19T11:12:21.823Z,54.20
2022-10-19T11:13:35.782Z,54.70
2022-10-19T11:14:22.413Z,53.30
2022-10-19T11:15:13.500Z,51.10
2022-10-19T11:16:25.523Z,49.80
2022-10-19T11:17:13.830Z,51.40
2022-10-19T11:19:28.392Z,54.10
2022-10-19T11:20:20.066Z,54.40
2022-10-19T11:21:12.938Z,55.90
2022-10-19T11:22:18.924Z,53.70
2022-10-19T11:23:23.598Z,52.90
2022-10-19T11:25:22.542Z,54.90
2022-10-19T11:26:18.563Z,53.50
2022-10-19T11:27:13.801Z,54.00
2022-10-19T11:28:23.883Z,52.40
2022-10-19T11:29:18.988Z,52.50
2022-10-19T11:30:20.771Z,53.40
2022-10-19T11:31:18.747Z,53.40
2022-10-19T11:32:13.710Z,52.90
2022-10-19T11:33:13.704Z,52.60
2022-10-19T11:35:13.078Z,52.70
2022-10-19T11:36:13.298Z,51.50
2022-10-19T11:37:13.319Z,49.90
2022-10-19T11:38:21.368Z,50.80
2022-10-19T11:39:13.498Z,53.10
2022-10-19T11:40:13.521Z,51.20
2022-10-19T11:41:17.872Z,50.50
2022-10-19T11:42:13.977Z,50.80
2022-10-19T11:43:12.878Z,49.80
2022-10-19T11:44:13.820Z,52.20
2022-10-19T11:45:23.868Z,52.10
2022-10-19T11:46:14.156Z,52.50
2022-10-19T11:47:13.418Z,52.30
2022-10-19T11:48:13.287Z,52.00
2022-10-19T11:49:13.325Z,53.40
2022-10-19T11:50:13.404Z,52.80
2022-10-19T11:51:21.411Z,52.80
2022-10-19T11:52:13.241Z,52.20
2022-10-19T11:53:13.126Z,52.60
2022-10-19T11:54:14.906Z,53.20
2022-10-19T11:55:13.007Z,53.90
2022-10-19T11:56:13.107Z,54.30
2022-10-19T11:57:13.394Z,53.40
2022-10-19T11:58:13.643Z,51.20
2022-10-19T12:00:15.287Z,51.00
2022-10-19T12:01:13.119Z,49.20
2022-10-19T12:02:13.531Z,49.90
2022-10-19T12:03:13.754Z,51.10
2022-10-19T12:04:13.695Z,52.10
2022-10-19T12:05:13.715Z,53.10
2022-10-19T12:06:13.713Z,53.10
2022-10-19T12:07:13.807Z,53.90
2022-10-19T12:08:14.106Z,51.50
2022-10-19T12:09:13.260Z,51.50
2022-10-19T12:10:13.346Z,52.40
2022-10-19T12:11:13.308Z,54.10
2022-10-19T12:12:13.457Z,56.20
2022-10-19T12:13:13.416Z,55.30
2022-10-19T12:14:13.374Z,55.80
2022-10-19T12:15:13.488Z,56.90
2022-10-19T12:16:13.814Z,55.50
2022-10-19T12:18:14.116Z,56.70
2022-10-19T12:19:13.123Z,57.80
2022-10-19T12:20:17.411Z,56.90
2022-10-19T12:21:14.042Z,54.80
2022-10-19T12:22:13.114Z,54.80
2022-10-19T12:23:13.206Z,55.20
2022-10-19T12:24:13.082Z,54.20
2022-10-19T12:25:13.218Z,54.90
2022-10-19T12:26:13.194Z,56.30
2022-10-19T12:27:13.472Z,56.90
2022-10-19T12:28:13.526Z,56.10
2022-10-19T12:29:13.502Z,56.40
2022-10-19T12:30:13.637Z,55.60
2022-10-19T12:31:14.015Z,57.70
2022-10-19T12:32:13.073Z,56.80
2022-10-19T12:33:13.287Z,59.10
2022-10-19T12:34:13.425Z,58.40
2022-10-19T12:35:13.704Z,58.30
2022-10-19T12:36:13.893Z,57.40
2022-10-19T12:37:13.813Z,56.50
2022-10-19T12:38:14.085Z,56.40
2022-10-19T12:39:13.219Z,55.50
2022-10-19T12:40:13.497Z,55.90
2022-10-19T12:41:13.613Z,59.00
2022-10-19T12:42:13.490Z,58.00
2022-10-19T12:43:13.452Z,58.60
2022-10-19T12:44:13.536Z,58.80
2022-10-19T12:45:13.893Z,59.50
2022-10-19T12:46:14.102Z,59.10
2022-10-19T12:47:13.262Z,59.90
2022-10-19T12:48:13.295Z,59.80
2022-10-19T12:49:13.553Z,57.70
2022-10-19T12:50:13.539Z,58.80
2022-10-19T12:51:13.598Z,57.40
2022-10-19T12:52:14.050Z,58.10
2022-10-19T12:53:13.433Z,58.60